Kirensk, Russia
Current Conditions -  °F | °C
As of 3:30 PM on Friday 31 Oct 2014 (Local Time) from UIBB Reporting Station
Broken Clouds Broken Clouds  
Wind Chill: 19°   Ceiling: 2300
Heat Index: 28°   Visibility: 6mi
Dew Point: 18°   Wind: 11mph
Humidity: 64%   Direction: 250°WSW
Pressure: 29.97"   Gusts: NA
Location:  57.79°N, 108.11°E
Report Text: UIBB 310730Z 25005MPS 9999 BKN023CB M02/M08 Q1015 NOSIG RMKQFE719/0958 30820545
Loading
Personal Weather Stations






























Interactive Weather Map
Tropical Storm Tracking
New forecast layout! Learn more

10-Day Weather Forecast

Advertisements
Track Severe Weather on mobile